createdAt,value
2019-05-22T00:00:01.218Z,80.08
2019-05-22T00:04:21.590Z,80.02
2019-05-22T00:08:41.990Z,80.08
2019-05-22T00:13:02.673Z,79.71
2019-05-22T00:17:28.527Z,80.82
2019-05-22T00:21:49.155Z,80.45
2019-05-22T00:26:10.171Z,80.16
2019-05-22T00:30:30.468Z,79.54
2019-05-22T00:34:50.977Z,80.91
2019-05-22T00:39:11.673Z,80.24
2019-05-22T00:43:32.864Z,80.30
2019-05-22T00:47:52.980Z,80.83
2019-05-22T00:52:17.621Z,80.31
2019-05-22T00:56:37.880Z,80.22
2019-05-22T01:00:58.871Z,80.17
2019-05-22T01:05:20.794Z,79.59
2019-05-22T01:09:42.263Z,79.64
2019-05-22T01:14:02.350Z,80.96
2019-05-22T01:18:24.902Z,80.35
2019-05-22T01:22:47.479Z,80.57
2019-05-22T01:27:08.406Z,80.74
2019-05-22T01:31:28.703Z,81.20
2019-05-22T01:35:52.022Z,82.17
2019-05-22T01:40:20.915Z,80.70
2019-05-22T01:44:41.091Z,81.34
2019-05-22T01:49:01.977Z,80.07
2019-05-22T01:53:22.965Z,81.04
2019-05-22T01:57:43.254Z,80.37
2019-05-22T02:02:03.652Z,81.34
2019-05-22T02:06:24.985Z,79.24
2019-05-22T02:10:46.095Z,79.76
2019-05-22T02:15:06.633Z,80.12
2019-05-22T02:19:27.555Z,80.94
2019-05-22T02:23:47.660Z,80.96
2019-05-22T02:28:08.126Z,80.18
2019-05-22T02:32:28.805Z,80.19
2019-05-22T02:36:48.998Z,80.28
2019-05-22T02:41:14.017Z,80.31
2019-05-22T02:45:32.121Z,80.75
2019-05-22T02:49:54.563Z,80.96
2019-05-22T02:54:15.163Z,79.49
2019-05-22T02:58:36.889Z,80.47
2019-05-22T03:02:58.100Z,79.50
2019-05-22T03:07:18.501Z,79.59
2019-05-22T03:11:41.537Z,79.76
2019-05-22T03:16:01.817Z,80.19
2019-05-22T03:20:22.856Z,79.59
2019-05-22T03:24:43.633Z,78.69
2019-05-22T03:29:04.650Z,79.77
2019-05-22T03:33:24.948Z,80.05
2019-05-22T03:37:45.115Z,79.74
2019-05-22T03:42:07.275Z,79.94
2019-05-22T03:46:39.279Z,81.60
2019-05-22T03:51:09.252Z,80.73
2019-05-22T03:55:29.309Z,81.74
2019-05-22T03:59:49.363Z,80.54
2019-05-22T04:04:10.938Z,79.96
2019-05-22T04:08:31.818Z,79.96
2019-05-22T04:12:51.912Z,80.19
2019-05-22T04:17:12.451Z,79.80
2019-05-22T04:21:32.601Z,79.34
2019-05-22T04:25:53.572Z,79.14
2019-05-22T04:30:14.200Z,78.63
2019-05-22T04:34:34.809Z,78.14
2019-05-22T04:38:56.198Z,79.00
2019-05-22T04:43:20.418Z,78.16
2019-05-22T04:47:42.576Z,77.54
2019-05-22T04:52:03.272Z,77.67
2019-05-22T04:56:26.054Z,78.33
2019-05-22T05:00:46.520Z,78.29
2019-05-22T05:05:09.133Z,77.86
2019-05-22T05:09:29.984Z,78.62
2019-05-22T05:13:50.439Z,78.39
2019-05-22T05:18:10.843Z,78.18
2019-05-22T05:22:40.497Z,78.26
2019-05-22T05:27:00.905Z,78.07
2019-05-22T05:31:21.909Z,78.08
2019-05-22T05:35:42.977Z,77.50
2019-05-22T05:40:28.135Z,77.17
2019-05-22T05:44:49.275Z,77.19
2019-05-22T05:49:10.573Z,77.40
2019-05-22T05:53:33.054Z,77.13
2019-05-22T05:58:22.827Z,76.98
2019-05-22T06:02:56.069Z,76.72
2019-05-22T06:10:34.021Z,77.29
2019-05-22T06:14:54.842Z,77.20
2019-05-22T06:19:15.961Z,75.99
2019-05-22T06:24:14.295Z,76.55
2019-05-22T06:28:37.361Z,76.66
2019-05-22T06:33:38.025Z,76.15
2019-05-22T06:38:17.251Z,76.27
2019-05-22T06:42:42.098Z,76.10
2019-05-22T06:47:03.706Z,75.25
2019-05-22T06:51:36.810Z,76.01
2019-05-22T06:55:58.509Z,75.29
2019-05-22T07:00:19.928Z,76.00
2019-05-22T07:04:40.839Z,75.91
2019-05-22T07:09:01.302Z,75.76
2019-05-22T07:13:23.350Z,74.64
2019-05-22T07:17:44.812Z,74.33
2019-05-22T07:22:05.967Z,73.93
2019-05-22T07:26:27.490Z,74.36
2019-05-22T07:30:48.808Z,74.88
2019-05-22T07:35:10.357Z,74.88
2019-05-22T07:39:31.620Z,73.38
2019-05-22T07:43:53.587Z,74.05
2019-05-22T07:48:15.533Z,73.85
2019-05-22T07:52:36.424Z,74.46
2019-05-22T07:56:58.334Z,74.55
2019-05-22T08:01:29.377Z,74.67
2019-05-22T08:05:55.171Z,74.19
2019-05-22T08:10:17.798Z,73.83
2019-05-22T08:14:38.809Z,72.95
2019-05-22T08:19:00.095Z,72.39
2019-05-22T08:23:21.189Z,71.38
2019-05-22T08:27:42.247Z,69.99
2019-05-22T08:32:03.659Z,70.39
2019-05-22T08:36:24.785Z,70.63
2019-05-22T08:40:45.659Z,70.59
2019-05-22T08:45:06.726Z,68.02
2019-05-22T08:49:27.412Z,69.64
2019-05-22T08:53:48.757Z,68.26
2019-05-22T08:58:20.945Z,69.54
2019-05-22T09:02:41.992Z,67.52
2019-05-22T09:07:02.933Z,66.91
2019-05-22T09:11:24.387Z,67.82
2019-05-22T09:15:45.709Z,65.69
2019-05-22T09:20:12.146Z,67.18
2019-05-22T09:24:34.974Z,68.26
2019-05-22T09:28:55.848Z,65.18
2019-05-22T09:33:16.421Z,66.94
2019-05-22T09:37:37.555Z,62.24
2019-05-22T09:41:58.070Z,65.30
2019-05-22T09:46:19.068Z,64.08
2019-05-22T09:50:39.899Z,64.60
2019-05-22T09:55:00.506Z,64.84
2019-05-22T09:59:21.115Z,63.37
2019-05-22T10:03:41.704Z,64.65
2019-05-22T10:08:02.162Z,63.54
2019-05-22T10:12:23.000Z,62.24
2019-05-22T10:16:43.578Z,62.97
2019-05-22T10:21:04.090Z,63.79
2019-05-22T10:25:24.691Z,59.91
2019-05-22T10:29:45.228Z,60.55
2019-05-22T10:34:06.088Z,62.03
2019-05-22T10:38:27.004Z,59.01
2019-05-22T10:42:52.645Z,59.78
2019-05-22T10:47:13.120Z,57.69
2019-05-22T10:51:33.841Z,58.72
2019-05-22T10:55:54.634Z,59.11
2019-05-22T11:00:16.725Z,56.50
2019-05-22T11:04:37.347Z,61.06
2019-05-22T11:08:58.050Z,58.63
2019-05-22T11:13:18.549Z,56.44
2019-05-22T11:17:39.944Z,58.63
2019-05-22T11:22:00.961Z,57.41
2019-05-22T11:26:22.007Z,56.36
2019-05-22T11:30:42.696Z,57.61
2019-05-22T11:35:06.757Z,53.87
2019-05-22T11:39:38.522Z,57.14
2019-05-22T11:43:49.023Z,53.22
2019-05-22T11:48:09.656Z,57.51
2019-05-22T11:52:30.623Z,54.01
2019-05-22T11:56:51.247Z,51.78
2019-05-22T12:01:11.678Z,54.41
2019-05-22T12:05:32.992Z,53.79
2019-05-22T12:09:53.535Z,55.30
2019-05-22T12:14:15.013Z,54.97
2019-05-22T12:18:35.254Z,52.78
2019-05-22T12:22:55.972Z,53.32
2019-05-22T12:27:16.426Z,54.36
2019-05-22T12:31:37.185Z,55.22
2019-05-22T12:35:57.606Z,49.51
2019-05-22T12:40:18.500Z,52.25
2019-05-22T12:44:40.058Z,52.46
2019-05-22T12:49:01.510Z,51.38
2019-05-22T12:53:22.107Z,52.00
2019-05-22T12:57:42.783Z,51.61
2019-05-22T13:02:04.373Z,48.74
2019-05-22T13:06:25.647Z,49.68
2019-05-22T13:10:47.417Z,52.47
2019-05-22T13:15:10.402Z,52.98
2019-05-22T13:19:31.536Z,50.82
2019-05-22T13:23:52.535Z,48.39
2019-05-22T13:28:16.960Z,50.13
2019-05-22T13:32:56.935Z,48.11
2019-05-22T13:37:17.964Z,45.76
2019-05-22T13:41:42.809Z,46.78
2019-05-22T13:46:03.409Z,49.03
2019-05-22T13:50:28.692Z,49.46
2019-05-22T13:54:55.897Z,49.15
2019-05-22T13:59:16.702Z,51.21
2019-05-22T14:03:38.271Z,50.57
2019-05-22T14:08:00.306Z,48.81
2019-05-22T14:12:21.772Z,47.94
2019-05-22T14:16:48.658Z,46.83
2019-05-22T14:21:04.698Z,47.35
2019-05-22T14:25:25.733Z,46.52
2019-05-22T14:29:46.320Z,49.44
2019-05-22T14:34:09.233Z,47.72
2019-05-22T14:38:30.701Z,47.88
2019-05-22T14:42:52.261Z,49.96
2019-05-22T14:47:16.279Z,44.67
2019-05-22T14:51:35.787Z,47.13
2019-05-22T14:55:57.172Z,45.11
2019-05-22T15:00:18.892Z,45.67
2019-05-22T15:04:40.313Z,44.53
2019-05-22T15:09:01.365Z,43.93
2019-05-22T15:13:22.088Z,46.42
2019-05-22T15:17:42.856Z,47.50
2019-05-22T15:22:04.842Z,44.54
2019-05-22T15:26:25.792Z,45.20
2019-05-22T15:30:46.525Z,45.08
2019-05-22T15:35:10.951Z,45.30
2019-05-22T15:39:32.491Z,47.40
2019-05-22T15:43:54.433Z,45.28
2019-05-22T15:48:17.138Z,43.92
2019-05-22T15:52:39.119Z,43.91
2019-05-22T15:57:00.801Z,47.29
2019-05-22T16:01:31.228Z,42.90
2019-05-22T16:05:53.283Z,44.18
2019-05-22T16:10:13.881Z,41.92
2019-05-22T16:14:34.867Z,42.34
2019-05-22T16:18:59.951Z,46.86
2019-05-22T16:23:22.093Z,44.03
2019-05-22T16:27:44.666Z,43.71
2019-05-22T16:32:07.569Z,47.44
2019-05-22T16:36:29.048Z,44.80
2019-05-22T16:41:27.307Z,45.94
2019-05-22T16:45:48.587Z,47.49
2019-05-22T16:50:11.445Z,48.24
2019-05-22T16:54:32.764Z,49.53
2019-05-22T16:58:53.717Z,49.29
2019-05-22T17:03:14.609Z,45.54
2019-05-22T17:07:35.932Z,47.72
2019-05-22T17:11:57.317Z,48.40
2019-05-22T17:16:17.847Z,42.94
2019-05-22T17:20:43.382Z,44.60
2019-05-22T17:25:04.348Z,47.00
2019-05-22T17:29:24.867Z,47.65
2019-05-22T17:33:46.034Z,49.46
2019-05-22T17:38:06.992Z,48.06
2019-05-22T17:42:28.743Z,49.28
2019-05-22T17:46:49.866Z,51.32
2019-05-22T17:51:10.989Z,46.67
2019-05-22T17:55:36.841Z,47.67
2019-05-22T17:59:59.131Z,51.02
2019-05-22T18:04:19.483Z,49.11
2019-05-22T18:08:41.498Z,49.23
2019-05-22T18:13:03.292Z,48.62
2019-05-22T18:17:24.447Z,48.11
2019-05-22T18:21:45.154Z,47.92
2019-05-22T18:26:05.755Z,49.11
2019-05-22T18:30:26.972Z,49.07
2019-05-22T18:34:54.481Z,49.33
2019-05-22T18:39:15.422Z,48.56
2019-05-22T18:43:36.019Z,48.87
2019-05-22T18:47:58.352Z,49.67
2019-05-22T18:52:19.260Z,50.04
2019-05-22T18:56:40.807Z,49.78
2019-05-22T19:01:01.700Z,49.50
2019-05-22T19:05:25.852Z,48.69
2019-05-22T19:09:46.724Z,50.08
2019-05-22T19:14:08.113Z,49.70
2019-05-22T19:18:28.941Z,51.09
2019-05-22T19:22:59.931Z,51.42
2019-05-22T19:27:13.711Z,50.90
2019-05-22T19:31:35.258Z,51.10
2019-05-22T19:35:56.340Z,51.27
2019-05-22T19:40:18.133Z,52.70
2019-05-22T19:44:39.787Z,52.31
2019-05-22T19:49:01.793Z,52.46
2019-05-22T19:53:22.266Z,53.86
2019-05-22T19:57:44.283Z,55.88
2019-05-22T20:02:04.979Z,56.33
2019-05-22T20:06:25.771Z,56.30
2019-05-22T20:10:47.281Z,57.58
2019-05-22T20:15:08.271Z,58.57
2019-05-22T20:19:29.871Z,58.92
2019-05-22T20:23:51.851Z,59.55
2019-05-22T20:28:13.584Z,60.38
2019-05-22T20:32:45.772Z,61.09
2019-05-22T20:37:16.880Z,61.41
2019-05-22T20:41:46.774Z,61.54
2019-05-22T20:46:10.324Z,61.02
2019-05-22T20:50:40.275Z,61.58
2019-05-22T20:55:03.916Z,61.51
2019-05-22T20:59:25.124Z,61.82
2019-05-22T21:03:45.800Z,62.06
2019-05-22T21:08:10.362Z,62.73
2019-05-22T21:12:35.477Z,62.17
2019-05-22T21:16:54.719Z,62.95
2019-05-22T21:21:15.892Z,62.71
2019-05-22T21:25:36.737Z,63.11
2019-05-22T21:29:57.249Z,62.94
2019-05-22T21:34:18.056Z,62.82
2019-05-22T21:38:39.199Z,62.98
2019-05-22T21:43:00.591Z,62.93
2019-05-22T21:47:21.913Z,63.14
2019-05-22T21:51:43.222Z,63.85
2019-05-22T21:56:07.521Z,63.14
2019-05-22T22:00:32.729Z,63.49
2019-05-22T22:04:54.311Z,62.67
2019-05-22T22:09:15.054Z,63.11
2019-05-22T22:13:36.973Z,63.75
2019-05-22T22:17:57.310Z,64.82
2019-05-22T22:26:37.973Z,64.72
2019-05-22T22:31:00.375Z,64.60
2019-05-22T22:35:21.557Z,65.20
2019-05-22T22:39:43.911Z,65.37
2019-05-22T22:44:05.021Z,65.77
2019-05-22T22:48:25.295Z,65.40
2019-05-22T22:52:46.421Z,65.59
2019-05-22T22:57:07.329Z,65.37
2019-05-22T23:01:29.768Z,65.76
2019-05-22T23:05:50.762Z,66.19
2019-05-22T23:10:12.120Z,65.76
2019-05-22T23:14:33.336Z,65.97
2019-05-22T23:19:15.576Z,65.88
2019-05-22T23:23:34.817Z,65.72
2019-05-22T23:27:55.997Z,65.96
2019-05-22T23:32:16.378Z,66.42
2019-05-22T23:36:36.660Z,66.70
2019-05-22T23:40:57.147Z,66.03
2019-05-22T23:45:19.195Z,66.51
2019-05-22T23:49:40.205Z,67.10
2019-05-22T23:54:00.857Z,67.06
2019-05-22T23:58:22.043Z,67.35
